Weather History for Roseau, MN

Change the Weather History Date:

Thursday, October 31, 2013

  Actual Average Record
Temperature  
Mean Temperature 39 °F -  
Max Temperature 46 °F 46 °F 69 °F (1999)
Min Temperature 30 °F 28 °F 8 °F (1951)
Degree Days  
Heating Degree Days 26    
Moisture  
Dew Point 34 °F    
Average Humidity 80    
Maximum Humidity 87    
Minimum Humidity 66    
Precipitation  
Precipitation 0.00 in - - ()
Sea Level Pressure  
Sea Level Pressure 29.48 in    
Wind  
Wind Speed 5 mph (WSW)    
Max Wind Speed 8 mph    
Max Gust Speed -    
Visibility 8 miles    
Events      
Averages and records for this station are not official NWS values.
T = Trace of Precipitation, MM = Missing Value Source: NWS Daily Summary

Daily Weather History Graph

Daily Weather History Graph

Search for Another Location

Airport:

Trip Planner

Search our weather history database for the weather conditions in past years. The results will help you decide how hot, cold, wet, or windy it might be!

Date:

Astronomy

Oct. 31, 2013 Rise Set
Actual Time 8:08 AM CDT 6:03 PM CDT
Civil Twilight 7:35 AM CDT 6:36 PM CDT
Nautical Twilight 6:58 AM CDT 7:13 PM CDT
Astronomical Twilight 6:21 AM CDT 7:50 PM CDT
Moon 4:44 AM CDT (10/31) 4:34 PM CDT (10/31)
Length of Visible Light 11h 00m
Length of Day
9h 54m
Waning Crescent, 10% of the Moon is Illuminated
Oct 31
Waning Crescent
Nov 3
New
Nov 9
First Quarter
Nov 17
Full
Nov 25
Last Quarter

Hourly Weather History & Observations

Time (CDT) Temp. Windchill Dew Point Humidity Pressure Visibility Wind Dir Wind Speed Gust Speed Precip Events Conditions
12:14 AM 37.4 °F 32.1 °F 33.8 °F 87% 29.65 in 4.0 mi SW 6.9 mph - N/A   Haze
12:34 AM 37.4 °F 32.1 °F 33.8 °F 87% 29.64 in 5.0 mi SW 6.9 mph - N/A   Haze
12:55 AM 37.4 °F 33.8 °F 33.8 °F 87% 29.63 in 5.0 mi SW 4.6 mph - N/A   Haze
1:14 AM 37.4 °F 32.8 °F 33.8 °F 87% 29.63 in 5.0 mi SSW 5.8 mph - N/A   Haze
1:35 AM 37.4 °F 32.8 °F 33.8 °F 87% 29.62 in 5.0 mi SW 5.8 mph - N/A   Haze
1:54 AM 37.4 °F 32.8 °F 33.8 °F 87% 29.61 in 5.0 mi SSW 5.8 mph - N/A   Haze
2:15 AM 37.4 °F 33.8 °F 33.8 °F 87% 29.61 in 5.0 mi SW 4.6 mph - N/A   Haze
2:34 AM 37.4 °F 32.8 °F 33.8 °F 87% 29.60 in 5.0 mi SW 5.8 mph - N/A   Haze
2:54 AM 37.4 °F 32.8 °F 33.8 °F 87% 29.59 in 7.0 mi SW 5.8 mph - N/A   Overcast
3:15 AM 37.4 °F 32.8 °F 33.8 °F 87% 29.58 in 7.0 mi SSW 5.8 mph - N/A   Overcast
3:34 AM 37.4 °F 32.8 °F 33.8 °F 87% 29.58 in 7.0 mi SSW 5.8 mph - N/A   Overcast
3:54 AM 37.4 °F 32.8 °F 33.8 °F 87% 29.57 in 7.0 mi SSW 5.8 mph - N/A   Overcast
4:15 AM 37.4 °F 32.8 °F 33.8 °F 87% 29.56 in 7.0 mi SSW 5.8 mph - N/A   Overcast
4:34 AM 37.4 °F 32.8 °F 33.8 °F 87% 29.55 in 7.0 mi SSW 5.8 mph - N/A   Overcast
4:54 AM 37.4 °F 33.8 °F 33.8 °F 87% 29.54 in 7.0 mi SW 4.6 mph - N/A   Overcast
5:14 AM 37.4 °F 34.9 °F 33.8 °F 87% 29.54 in 7.0 mi SW 3.5 mph - N/A   Overcast
5:34 AM 37.4 °F 33.8 °F 33.8 °F 87% 29.54 in 7.0 mi SW 4.6 mph - N/A   Overcast
5:54 AM 37.4 °F 34.9 °F 33.8 °F 87% 29.54 in 7.0 mi SW 3.5 mph - N/A   Overcast
6:14 AM 37.4 °F 33.8 °F 33.8 °F 87% 29.54 in 7.0 mi SSW 4.6 mph - N/A   Overcast
6:34 AM 37.4 °F 33.8 °F 33.8 °F 87% 29.54 in 7.0 mi SSW 4.6 mph - N/A   Overcast
6:54 AM 37.4 °F 33.8 °F 33.8 °F 87% 29.54 in 7.0 mi SSW 4.6 mph - N/A   Overcast
7:14 AM 37.4 °F 34.9 °F 33.8 °F 87% 29.53 in 7.0 mi SSW 3.5 mph - N/A   Overcast
7:34 AM 37.4 °F 34.9 °F 33.8 °F 87% 29.53 in 7.0 mi SSW 3.5 mph - N/A   Overcast
7:54 AM 37.4 °F 34.9 °F 33.8 °F 87% 29.52 in 7.0 mi SW 3.5 mph - N/A   Overcast
8:14 AM 37.4 °F - 33.8 °F 87% 29.51 in 7.0 mi Calm Calm - N/A   Overcast
8:34 AM 37.4 °F - 33.8 °F 87% 29.51 in 5.0 mi Calm Calm - N/A   Haze
8:55 AM 37.4 °F - 33.8 °F 87% 29.50 in 5.0 mi Calm Calm - N/A   Scattered Clouds
9:14 AM 35.6 °F - 32.0 °F 87% 29.49 in 5.0 mi Calm Calm - N/A   Scattered Clouds
9:35 AM 35.6 °F - 30.2 °F 81% 29.50 in 5.0 mi Calm Calm - N/A   Haze
9:54 AM 37.4 °F - 33.8 °F 87% 29.50 in 5.0 mi Calm Calm - N/A   Haze
10:14 AM 39.2 °F 35.9 °F 33.8 °F 81% 29.49 in 7.0 mi SW 4.6 mph - N/A   Overcast
10:34 AM 39.2 °F 37.0 °F 33.8 °F 81% 29.49 in 10.0 mi SSW 3.5 mph - N/A   Overcast
10:54 AM 41.0 °F 37.1 °F 35.6 °F 81% 29.49 in 10.0 mi SW 5.8 mph - N/A   Overcast
11:14 AM 41.0 °F 37.1 °F 35.6 °F 81% 29.49 in 10.0 mi SW 5.8 mph - N/A   Overcast
11:34 AM 42.8 °F 38.6 °F 35.6 °F 76% 29.49 in 10.0 mi SSW 6.9 mph - N/A   Mostly Cloudy
11:54 AM 42.8 °F 38.0 °F 35.6 °F 76% 29.49 in 10.0 mi SSW 8.1 mph - N/A   Scattered Clouds
12:14 PM 42.8 °F 38.0 °F 35.6 °F 76% 29.48 in 10.0 mi SSW 8.1 mph - N/A   Mostly Cloudy
12:34 PM 42.8 °F 38.0 °F 35.6 °F 76% 29.47 in 10.0 mi SSW 8.1 mph - N/A   Overcast
12:54 PM 42.8 °F 38.0 °F 35.6 °F 76% 29.47 in 10.0 mi SSW 8.1 mph - N/A   Overcast
1:14 PM 42.8 °F 39.3 °F 35.6 °F 76% 29.46 in 10.0 mi WSW 5.8 mph - N/A   Overcast
1:35 PM 42.8 °F 38.6 °F 35.6 °F 76% 29.45 in 10.0 mi SSW 6.9 mph - N/A   Mostly Cloudy
1:54 PM 42.8 °F 38.6 °F 35.6 °F 76% 29.44 in 10.0 mi SW 6.9 mph - N/A   Mostly Cloudy
2:14 PM 44.6 °F 41.4 °F 35.6 °F 71% 29.43 in 10.0 mi WSW 5.8 mph - N/A   Overcast
2:35 PM 44.6 °F 40.2 °F 35.6 °F 71% 29.42 in 10.0 mi SW 8.1 mph - N/A   Overcast
2:54 PM 44.6 °F 40.7 °F 35.6 °F 71% 29.42 in 10.0 mi WSW 6.9 mph - N/A   Overcast
3:14 PM 44.6 °F 41.4 °F 35.6 °F 71% 29.41 in 10.0 mi WSW 5.8 mph - N/A   Overcast
3:35 PM 44.6 °F 41.4 °F 35.6 °F 71% 29.41 in 10.0 mi West 5.8 mph - N/A   Scattered Clouds
3:54 PM 46.4 °F 45.2 °F 37.4 °F 71% 29.41 in 10.0 mi WSW 3.5 mph - N/A   Clear
4:14 PM 46.4 °F 44.3 °F 37.4 °F 71% 29.40 in 10.0 mi SW 4.6 mph - N/A   Clear
4:34 PM 46.4 °F 44.3 °F 37.4 °F 71% 29.40 in 10.0 mi West 4.6 mph - N/A   Clear
4:54 PM 46.4 °F 45.2 °F 35.6 °F 66% 29.40 in 10.0 mi West 3.5 mph - N/A   Clear
5:14 PM 46.4 °F 44.3 °F 35.6 °F 66% 29.40 in 10.0 mi WNW 4.6 mph - N/A   Clear
5:35 PM 46.4 °F 45.2 °F 35.6 °F 66% 29.40 in 10.0 mi West 3.5 mph - N/A   Clear
5:54 PM 46.4 °F 42.4 °F 35.6 °F 66% 29.40 in 10.0 mi West 8.1 mph - N/A   Clear
6:14 PM 44.6 °F 40.7 °F 35.6 °F 71% 29.40 in 10.0 mi WNW 6.9 mph - N/A   Scattered Clouds
6:35 PM 44.6 °F 41.4 °F 35.6 °F 71% 29.40 in 10.0 mi WNW 5.8 mph - N/A   Scattered Clouds
6:54 PM 44.6 °F 41.4 °F 35.6 °F 71% 29.40 in 10.0 mi WNW 5.8 mph - N/A   Scattered Clouds
7:14 PM 42.8 °F 39.3 °F 35.6 °F 76% 29.41 in 10.0 mi WNW 5.8 mph - N/A   Scattered Clouds
7:34 PM 42.8 °F 39.3 °F 33.8 °F 70% 29.41 in 10.0 mi WNW 5.8 mph - N/A   Clear
7:54 PM 42.8 °F 39.3 °F 33.8 °F 70% 29.41 in 10.0 mi WNW 5.8 mph - N/A   Clear
8:14 PM 41.0 °F 35.8 °F 33.8 °F 76% 29.41 in 10.0 mi WNW 8.1 mph - N/A   Clear
8:34 PM 39.2 °F 35.0 °F 32.0 °F 75% 29.41 in 10.0 mi WNW 5.8 mph - N/A   Clear
8:54 PM 37.4 °F 33.8 °F 30.2 °F 75% 29.41 in 10.0 mi WNW 4.6 mph - N/A   Clear
9:14 PM 37.4 °F 33.8 °F 30.2 °F 75% 29.41 in 7.0 mi WNW 4.6 mph - N/A   Clear
9:34 PM 35.6 °F 31.7 °F 30.2 °F 81% 29.42 in 7.0 mi WNW 4.6 mph - N/A   Clear
9:54 PM 35.6 °F 31.7 °F 28.4 °F 75% 29.42 in 7.0 mi WNW 4.6 mph - N/A   Clear
10:14 PM 33.8 °F 30.8 °F 28.4 °F 81% 29.42 in 7.0 mi WNW 3.5 mph - N/A   Clear
10:34 PM 33.8 °F 29.6 °F 28.4 °F 81% 29.43 in 7.0 mi WNW 4.6 mph - N/A   Clear
10:54 PM 33.8 °F 28.6 °F 28.4 °F 81% 29.43 in 7.0 mi WNW 5.8 mph - N/A   Clear
11:14 PM 32.0 °F 26.4 °F 26.6 °F 80% 29.44 in 7.0 mi WNW 5.8 mph - N/A   Clear
11:34 PM 32.0 °F 27.5 °F 26.6 °F 80% 29.44 in 7.0 mi WNW 4.6 mph - N/A   Clear
11:54 PM 30.2 °F 25.4 °F 26.6 °F 86% 29.43 in 7.0 mi WNW 4.6 mph - N/A   Clear